Time;durP1;ratioP1;P1;durP2;ratioP2;P2;SDS_P1;SDS_P2;PMS_P1;PMS_P2;Temp;Humidity;BMP_temperature;BMP_pressure;BME280_temperature;BME280_humidity;BME280_pressure;Samples;Min_cycle;Max_cycle;Signal;HPM_P1;HPM_P2
2022/08/15 00:00:13;;;;;;;3.05;1.90;;;;;;;;;;5043877;28;20029;-75
2022/08/15 00:02:43;;;;;;;4.15;1.92;;;;;;;;;;5035055;28;20420;-75
2022/08/15 00:05:13;;;;;;;4.85;2.00;;;;;;;;;;5044244;28;20025;-76
2022/08/15 00:07:39;;;;;;;2.70;1.80;;;;;;;;;;5031911;28;20392;-74
2022/08/15 00:10:05;;;;;;;5.05;1.95;;;;;;;;;;5043031;28;20029;-75
2022/08/15 00:12:30;;;;;;;2.83;1.90;;;;;;;;;;5046894;28;20025;-75
2022/08/15 00:14:56;;;;;;;2.80;1.90;;;;;;;;;;5043199;28;20108;-75
2022/08/15 00:17:22;;;;;;;4.85;1.80;;;;;;;;;;5050608;28;20043;-75
2022/08/15 00:19:48;;;;;;;4.43;2.00;;;;;;;;;;5048360;28;20052;-74
2022/08/15 00:22:17;;;;;;;3.13;2.17;;;;;;;;;;5052813;28;20489;-75
2022/08/15 00:24:43;;;;;;;3.08;2.00;;;;;;;;;;5035705;28;20128;-75
2022/08/15 00:27:08;;;;;;;3.20;1.95;;;;;;;;;;5050818;28;20056;-75
2022/08/15 00:29:34;;;;;;;2.97;1.88;;;;;;;;;;5052674;28;20025;-75
2022/08/15 00:32:00;;;;;;;3.30;2.17;;;;;;;;;;5044234;28;20059;-75
2022/08/15 00:34:26;;;;;;;2.90;2.00;;;;;;;;;;5037168;28;20021;-74
2022/08/15 00:36:52;;;;;;;2.95;1.92;;;;;;;;;;5039422;28;20028;-75
2022/08/15 00:39:18;;;;;;;5.05;2.00;;;;;;;;;;5049517;28;20054;-75
2022/08/15 00:41:44;;;;;;;2.70;2.00;;;;;;;;;;5045114;28;20108;-75
2022/08/15 00:44:15;;;;;;;3.78;2.00;;;;;;;;;;5040049;28;20056;-75
2022/08/15 00:46:42;;;;;;;5.03;2.00;;;;;;;;;;5038618;28;20037;-75
2022/08/15 00:49:08;;;;;;;4.88;2.20;;;;;;;;;;5039355;28;20415;-74
2022/08/15 00:51:45;;;;;;;3.58;1.98;;;;;;;;;;5043661;28;20020;-74
2022/08/15 00:54:13;;;;;;;4.20;2.10;;;;;;;;;;5046426;28;20053;-74
2022/08/15 00:56:57;;;;;;;5.60;1.98;;;;;;;;;;5050539;28;20076;-74
2022/08/15 00:59:23;;;;;;;;;;;;;;;;;;5051762;28;20025;-74
2022/08/15 01:01:49;;;;;;;3.10;1.80;;;;;;;;;;5047718;28;19915;-75
2022/08/15 01:04:14;;;;;;;3.63;1.95;;;;;;;;;;5043744;28;20379;-73
2022/08/15 01:06:40;;;;;;;2.40;1.77;;;;;;;;;;5045037;28;20430;-74
2022/08/15 01:09:06;;;;;;;2.80;1.80;;;;;;;;;;5044629;28;20049;-74
2022/08/15 01:11:34;;;;;;;3.38;1.98;;;;;;;;;;5044405;28;20036;-74
2022/08/15 01:14:00;;;;;;;3.10;2.00;;;;;;;;;;5046210;28;20017;-74
2022/08/15 01:16:27;;;;;;;3.20;1.92;;;;;;;;;;5039063;28;20021;-74
2022/08/15 01:18:52;;;;;;;2.92;2.15;;;;;;;;;;5045604;28;20419;-74
2022/08/15 01:21:27;;;;;;;5.97;2.58;;;;;;;;;;5040262;28;20103;-74
2022/08/15 01:23:52;;;;;;;4.95;2.13;;;;;;;;;;5054698;28;20053;-76
2022/08/15 01:26:18;;;;;;;3.00;2.17;;;;;;;;;;5043140;28;20064;-75
2022/08/15 01:28:46;;;;;;;3.13;2.10;;;;;;;;;;5036278;28;20028;-74
2022/08/15 01:31:13;;;;;;;2.85;1.95;;;;;;;;;;5040296;28;20079;-76
2022/08/15 01:33:42;;;;;;;3.35;2.10;;;;;;;;;;5049308;28;20033;-75
2022/08/15 01:36:08;;;;;;;7.03;2.10;;;;;;;;;;5036633;28;20025;-75
2022/08/15 01:38:36;;;;;;;3.08;2.00;;;;;;;;;;5040156;28;20104;-75
2022/08/15 01:41:04;;;;;;;2.90;1.88;;;;;;;;;;5042985;28;20037;-75
2022/08/15 01:43:31;;;;;;;3.78;2.20;;;;;;;;;;5044569;28;20052;-75
2022/08/15 01:45:59;;;;;;;3.33;2.05;;;;;;;;;;5046450;28;20037;-75
2022/08/15 01:48:28;;;;;;;6.30;2.47;;;;;;;;;;5044282;28;20098;-74
2022/08/15 01:50:56;;;;;;;3.42;2.13;;;;;;;;;;5049336;28;20128;-75
2022/08/15 01:53:32;;;;;;;2.83;2.10;;;;;;;;;;5047835;28;20032;-75
2022/08/15 01:56:16;;;;;;;3.88;2.30;;;;;;;;;;5032470;28;20033;-75
2022/08/15 01:58:42;;;;;;;4.07;2.15;;;;;;;;;;5041709;28;20439;-75
2022/08/15 02:01:16;;;;;;;3.28;2.08;;;;;;;;;;5043311;28;20037;-75
2022/08/15 02:03:42;;;;;;;5.07;2.47;;;;;;;;;;5035742;28;20366;-75
2022/08/15 02:06:11;;;;;;;3.50;2.08;;;;;;;;;;5039134;28;20048;-74
2022/08/15 02:08:37;;;;;;;2.97;2.10;;;;;;;;;;5051034;28;20451;-75
2022/08/15 02:11:06;;;;;;;3.55;2.30;;;;;;;;;;5045707;28;20105;-74
2022/08/15 02:13:32;;;;;;;3.10;2.10;;;;;;;;;;5047722;28;20397;-75
2022/08/15 02:15:57;;;;;;;5.53;2.28;;;;;;;;;;5040250;28;20017;-75
2022/08/15 02:18:22;;;;;;;3.97;2.65;;;;;;;;;;5038043;28;20040;-75
2022/08/15 02:20:48;;;;;;;3.42;2.42;;;;;;;;;;5035648;28;20444;-75
2022/08/15 02:23:13;;;;;;;3.85;2.40;;;;;;;;;;5038609;28;20041;-75
2022/08/15 02:25:38;;;;;;;3.83;2.58;;;;;;;;;;5036747;28;20219;-75
2022/08/15 02:28:03;;;;;;;5.25;2.65;;;;;;;;;;5047388;28;20052;-75
2022/08/15 02:30:30;;;;;;;4.88;2.60;;;;;;;;;;5042349;28;20018;-75
2022/08/15 02:32:56;;;;;;;3.78;2.42;;;;;;;;;;5038120;28;20033;-74
2022/08/15 02:35:21;;;;;;;4.82;2.67;;;;;;;;;;5048623;28;20031;-74
2022/08/15 02:37:47;;;;;;;3.55;2.40;;;;;;;;;;5046829;28;20025;-75
2022/08/15 02:40:14;;;;;;;3.78;2.50;;;;;;;;;;5041521;28;20456;-75
2022/08/15 02:42:41;;;;;;;3.80;2.78;;;;;;;;;;5041560;28;20032;-75
2022/08/15 02:45:11;;;;;;;4.80;2.70;;;;;;;;;;5042940;28;20370;-75
2022/08/15 02:47:43;;;;;;;6.15;2.35;;;;;;;;;;5043548;28;20029;-75
2022/08/15 02:50:09;;;;;;;4.45;2.58;;;;;;;;;;5039545;28;20484;-75
2022/08/15 02:52:38;;;;;;;5.65;2.85;;;;;;;;;;5046144;28;20021;-75
2022/08/15 02:55:04;;;;;;;3.63;2.45;;;;;;;;;;5050321;28;20020;-74
2022/08/15 02:57:29;;;;;;;3.72;2.47;;;;;;;;;;5045858;28;20025;-74
2022/08/15 02:59:55;;;;;;;4.18;2.97;;;;;;;;;;5045262;28;20053;-75
2022/08/15 03:02:20;;;;;;;5.28;2.53;;;;;;;;;;5046005;28;20029;-74
2022/08/15 03:04:46;;;;;;;3.53;2.50;;;;;;;;;;5048422;28;20477;-74
2022/08/15 03:07:11;;;;;;;3.47;2.55;;;;;;;;;;5047300;28;20029;-73
2022/08/15 03:09:37;;;;;;;3.25;2.58;;;;;;;;;;5037362;28;20021;-74
2022/08/15 03:12:03;;;;;;;3.55;2.70;;;;;;;;;;5037283;28;20121;-75
2022/08/15 03:14:28;;;;;;;3.75;2.75;;;;;;;;;;5034843;28;20025;-74
2022/08/15 03:16:54;;;;;;;4.55;2.47;;;;;;;;;;5039378;28;20483;-75
2022/08/15 03:19:24;;;;;;;4.25;2.40;;;;;;;;;;5042286;28;20036;-74
2022/08/15 03:21:49;;;;;;;3.55;2.20;;;;;;;;;;5038304;28;20025;-75
2022/08/15 03:24:16;;;;;;;4.00;2.50;;;;;;;;;;5042270;28;20025;-75
2022/08/15 03:26:46;;;;;;;3.33;2.33;;;;;;;;;;5038821;28;20065;-74
2022/08/15 03:29:12;;;;;;;4.40;2.53;;;;;;;;;;5039671;28;20023;-75
2022/08/15 03:31:37;;;;;;;3.28;2.35;;;;;;;;;;5039973;28;20033;-75
2022/08/15 03:34:02;;;;;;;4.85;2.40;;;;;;;;;;5036929;28;20087;-75
2022/08/15 03:36:28;;;;;;;6.28;2.45;;;;;;;;;;5034319;28;20033;-74
2022/08/15 03:38:53;;;;;;;6.00;2.35;;;;;;;;;;5041979;28;20407;-74
2022/08/15 03:41:18;;;;;;;5.07;2.10;;;;;;;;;;5043838;28;20056;-74
2022/08/15 03:43:46;;;;;;;3.28;2.10;;;;;;;;;;5042477;28;20036;-74
2022/08/15 03:46:13;;;;;;;7.78;2.67;;;;;;;;;;5043563;28;20040;-74
2022/08/15 03:48:40;;;;;;;3.40;2.00;;;;;;;;;;5041354;28;20032;-75
2022/08/15 03:51:08;;;;;;;3.00;2.25;;;;;;;;;;5034162;28;20040;-75
2022/08/15 03:53:38;;;;;;;3.33;2.17;;;;;;;;;;5036496;28;20036;-75
2022/08/15 03:56:05;;;;;;;3.50;2.15;;;;;;;;;;5050778;28;20039;-75
2022/08/15 03:58:31;;;;;;;3.25;2.20;;;;;;;;;;5040814;28;20357;-75
2022/08/15 04:00:58;;;;;;;3.65;2.20;;;;;;;;;;5041301;28;20049;-75
2022/08/15 04:03:24;;;;;;;3.85;2.00;;;;;;;;;;5039856;28;20029;-75
2022/08/15 04:05:51;;;;;;;3.13;2.10;;;;;;;;;;5042186;28;20041;-75
2022/08/15 04:08:18;;;;;;;2.53;2.10;;;;;;;;;;5050509;28;20018;-75
2022/08/15 04:10:45;;;;;;;2.78;1.92;;;;;;;;;;5051179;28;20033;-75
2022/08/15 04:13:10;;;;;;;4.13;2.22;;;;;;;;;;5040263;28;20025;-75
2022/08/15 04:15:37;;;;;;;3.40;2.10;;;;;;;;;;5044935;28;20453;-75
2022/08/15 04:18:03;;;;;;;3.63;2.05;;;;;;;;;;5046915;28;20112;-75
2022/08/15 04:20:28;;;;;;;4.70;2.10;;;;;;;;;;5040715;28;20080;-75
2022/08/15 04:22:53;;;;;;;3.13;2.20;;;;;;;;;;5049307;28;20400;-75
2022/08/15 04:25:27;;;;;;;6.07;2.25;;;;;;;;;;5048601;28;20044;-75
2022/08/15 04:27:53;;;;;;;7.65;2.00;;;;;;;;;;5046282;28;20115;-75
2022/08/15 04:30:20;;;;;;;4.10;2.10;;;;;;;;;;5047548;28;20105;-75
2022/08/15 04:32:46;;;;;;;5.47;2.30;;;;;;;;;;5046929;28;20115;-75
2022/08/15 04:35:11;;;;;;;2.90;2.03;;;;;;;;;;5045298;28;20504;-75
2022/08/15 04:37:39;;;;;;;4.75;2.20;;;;;;;;;;5046255;28;20383;-75
2022/08/15 04:40:06;;;;;;;3.63;2.15;;;;;;;;;;5034615;28;20033;-75
2022/08/15 04:42:31;;;;;;;4.78;2.30;;;;;;;;;;5042410;28;20028;-75
2022/08/15 04:44:56;;;;;;;6.07;2.40;;;;;;;;;;5038559;28;20112;-75
2022/08/15 04:47:22;;;;;;;5.43;1.85;;;;;;;;;;5039521;28;20029;-75
2022/08/15 04:49:47;;;;;;;3.50;2.00;;;;;;;;;;5043896;28;20033;-75
2022/08/15 04:52:14;;;;;;;2.78;2.00;;;;;;;;;;5033796;28;20047;-75
2022/08/15 04:54:40;;;;;;;3.40;1.98;;;;;;;;;;5046811;28;20396;-75
2022/08/15 04:57:06;;;;;;;3.42;2.13;;;;;;;;;;5044862;28;20040;-75
2022/08/15 04:59:31;;;;;;;2.92;1.90;;;;;;;;;;5041711;28;20502;-75
2022/08/15 05:01:56;;;;;;;4.63;2.00;;;;;;;;;;5039678;28;20033;-75
2022/08/15 05:04:22;;;;;;;2.85;2.08;;;;;;;;;;5043431;28;20025;-75
2022/08/15 05:06:47;;;;;;;4.05;2.25;;;;;;;;;;5054460;28;20029;-75
2022/08/15 05:09:12;;;;;;;3.25;2.08;;;;;;;;;;5049285;28;20059;-75
2022/08/15 05:11:37;;;;;;;3.13;1.90;;;;;;;;;;5047072;28;20484;-75
2022/08/15 05:14:03;;;;;;;3.05;1.90;;;;;;;;;;5040252;28;20021;-75
2022/08/15 05:16:28;;;;;;;5.88;2.28;;;;;;;;;;5055288;28;20033;-75
2022/08/15 05:18:53;;;;;;;3.30;2.10;;;;;;;;;;5041002;28;20523;-75
2022/08/15 05:21:19;;;;;;;2.75;2.03;;;;;;;;;;5040767;28;20060;-75
2022/08/15 05:23:44;;;;;;;3.00;2.05;;;;;;;;;;5050665;28;20298;-75
2022/08/15 05:26:10;;;;;;;2.92;2.00;;;;;;;;;;5038139;28;20060;-75
2022/08/15 05:28:36;;;;;;;3.30;2.05;;;;;;;;;;5050002;28;20380;-75
2022/08/15 05:31:02;;;;;;;2.90;1.92;;;;;;;;;;5046787;28;20025;-75
2022/08/15 05:33:29;;;;;;;4.15;1.92;;;;;;;;;;5046957;28;20046;-75
2022/08/15 05:35:56;;;;;;;2.90;2.10;;;;;;;;;;5036705;28;20036;-75
2022/08/15 05:38:23;;;;;;;2.88;1.88;;;;;;;;;;5038843;28;20037;-75
2022/08/15 05:41:09;;;;;;;4.90;1.98;;;;;;;;;;5047643;28;20025;-75
2022/08/15 05:43:53;;;;;;;5.72;2.03;;;;;;;;;;5032351;28;20064;-74
2022/08/15 05:46:18;;;;;;;4.30;1.90;;;;;;;;;;5046444;28;20029;-75
2022/08/15 05:48:46;;;;;;;2.95;1.90;;;;;;;;;;5050515;28;20021;-75
2022/08/15 05:51:16;;;;;;;4.45;2.10;;;;;;;;;;5048000;28;20103;-74
2022/08/15 05:53:42;;;;;;;3.33;2.13;;;;;;;;;;5047826;28;20045;-75
2022/08/15 05:56:39;;;;;;;7.78;2.05;;;;;;;;;;5052019;28;20028;-75
2022/08/15 05:59:07;;;;;;;4.10;1.90;;;;;;;;;;5037096;28;20144;-75
2022/08/15 06:01:32;;;;;;;4.07;2.13;;;;;;;;;;5052128;28;20025;-75
2022/08/15 06:04:07;;;;;;;5.55;1.73;;;;;;;;;;5049217;28;20033;-77
2022/08/15 06:06:35;;;;;;;5.68;2.38;;;;;;;;;;5050030;28;20045;-75
2022/08/15 06:09:16;;;;;;;2.67;1.98;;;;;;;;;;5046496;28;20065;-75
2022/08/15 06:11:44;;;;;;;3.30;1.80;;;;;;;;;;5035425;28;20083;-75
2022/08/15 06:14:28;;;;;;;3.45;1.73;;;;;;;;;;5052035;28;20025;-75
2022/08/15 06:16:55;;;;;;;3.10;1.98;;;;;;;;;;5033983;28;20365;-75
2022/08/15 06:19:22;;;;;;;2.80;1.90;;;;;;;;;;5039288;28;20109;-75
2022/08/15 06:22:02;;;;;;;4.53;1.80;;;;;;;;;;5039723;28;20021;-75
2022/08/15 06:24:31;;;;;;;3.90;2.00;;;;;;;;;;5043957;28;20032;-75
2022/08/15 06:27:10;;;;;;;5.53;1.63;;;;;;;;;;5046442;28;20036;-75
2022/08/15 06:29:52;;;;;;;2.75;1.88;;;;;;;;;;5044576;28;20036;-75
2022/08/15 06:32:22;;;;;;;2.88;2.15;;;;;;;;;;5041573;28;20040;-75
2022/08/15 06:34:59;;;;;;;3.08;2.05;;;;;;;;;;5037494;28;20035;-75
2022/08/15 06:37:29;;;;;;;4.95;1.90;;;;;;;;;;5047205;28;20034;-75
2022/08/15 06:40:27;;;;;;;2.50;1.60;;;;;;;;;;5045160;28;20033;-75
2022/08/15 06:42:53;;;;;;;3.70;1.95;;;;;;;;;;5049250;28;20145;-75
2022/08/15 06:45:26;;;;;;;3.47;2.03;;;;;;;;;;5047955;28;20045;-75
2022/08/15 06:47:54;;;;;;;4.45;2.00;;;;;;;;;;5040854;28;20104;-75
2022/08/15 06:50:24;;;;;;;3.55;1.85;;;;;;;;;;5036189;28;20485;-76
2022/08/15 06:52:51;;;;;;;4.25;1.90;;;;;;;;;;5039325;28;20033;-75
2022/08/15 06:55:17;;;;;;;2.80;1.85;;;;;;;;;;5041954;28;20020;-77
2022/08/15 06:57:54;;;;;;;4.72;1.88;;;;;;;;;;5044625;28;20026;-75
2022/08/15 07:00:35;;;;;;;3.20;2.00;;;;;;;;;;5040514;28;20048;-76
2022/08/15 07:03:09;;;;;;;3.72;1.90;;;;;;;;;;5043914;28;20053;-75
2022/08/15 07:05:41;;;;;;;7.15;2.72;;;;;;;;;;5045662;28;20067;-76
2022/08/15 07:08:10;;;;;;;4.05;2.40;;;;;;;;;;5040740;28;20028;-75
2022/08/15 07:10:44;;;;;;;3.88;2.10;;;;;;;;;;5041944;28;20033;-75
2022/08/15 07:13:12;;;;;;;5.07;3.13;;;;;;;;;;5044592;28;20025;-75
2022/08/15 07:15:56;;;;;;;3.55;2.50;;;;;;;;;;5047742;28;20506;-75
2022/08/15 07:18:30;;;;;;;4.95;2.40;;;;;;;;;;5032699;28;20033;-74
2022/08/15 07:21:03;;;;;;;2.88;2.08;;;;;;;;;;5037279;28;20048;-75
2022/08/15 07:23:30;;;;;;;3.63;2.10;;;;;;;;;;5052297;28;20127;-76
2022/08/15 07:25:59;;;;;;;3.78;2.30;;;;;;;;;;5040217;28;20097;-74
2022/08/15 07:28:26;;;;;;;3.60;2.63;;;;;;;;;;5047064;28;20022;-74
2022/08/15 07:30:54;;;;;;;4.35;2.63;;;;;;;;;;5046193;28;20031;-75
2022/08/15 07:33:40;;;;;;;6.72;2.70;;;;;;;;;;5046254;28;20040;-75
2022/08/15 07:36:17;;;;;;;6.50;2.80;;;;;;;;;;5024157;28;20053;-76
2022/08/15 07:38:43;;;;;;;5.18;3.10;;;;;;;;;;5047165;28;20037;-75
2022/08/15 07:41:12;;;;;;;6.05;2.97;;;;;;;;;;5041529;28;20048;-77
2022/08/15 07:43:38;;;;;;;6.40;2.85;;;;;;;;;;5046294;28;20374;-75
2022/08/15 07:46:21;;;;;;;5.72;2.83;;;;;;;;;;5037073;28;20477;-75
2022/08/15 07:48:54;;;;;;;6.20;3.33;;;;;;;;;;5032057;28;20087;-75
2022/08/15 07:51:27;;;;;;;3.95;2.90;;;;;;;;;;5036465;28;20033;-75
2022/08/15 07:53:52;;;;;;;9.07;3.38;;;;;;;;;;5035137;28;20072;-74
2022/08/15 07:56:18;;;;;;;6.03;3.10;;;;;;;;;;5037556;28;20429;-75
2022/08/15 07:58:44;;;;;;;5.25;2.55;;;;;;;;;;5048364;28;20028;-75
2022/08/15 08:01:27;;;;;;;5.50;2.80;;;;;;;;;;5042210;28;20033;-76
2022/08/15 08:04:01;;;;;;;5.00;2.53;;;;;;;;;;5029049;28;20033;-76
2022/08/15 08:06:30;;;;;;;3.35;2.30;;;;;;;;;;5039210;28;20038;-75
2022/08/15 08:09:14;;;;;;;6.88;2.40;;;;;;;;;;5032388;28;20038;-75
2022/08/15 08:11:44;;;;;;;7.20;2.50;;;;;;;;;;5035583;28;20040;-75
2022/08/15 08:14:10;;;;;;;8.93;2.30;;;;;;;;;;5034118;28;20030;-76
2022/08/15 08:16:52;;;;;;;7.10;2.22;;;;;;;;;;5023989;28;20060;-75
2022/08/15 08:19:27;;;;;;;9.32;2.63;;;;;;;;;;5037821;28;20021;-76
2022/08/15 08:22:07;;;;;;;5.50;2.40;;;;;;;;;;5043295;28;20061;-77
2022/08/15 08:25:02;;;;;;;4.70;2.30;;;;;;;;;;5038339;28;20033;-76
2022/08/15 08:27:46;;;;;;;3.50;2.22;;;;;;;;;;5032464;28;20076;-76
2022/08/15 08:30:14;;;;;;;4.20;2.30;;;;;;;;;;5028498;28;20409;-75
2022/08/15 08:32:55;;;;;;;3.90;2.72;;;;;;;;;;5044125;28;20104;-75
2022/08/15 08:35:24;;;;;;;5.45;3.17;;;;;;;;;;5022858;28;20607;-77
2022/08/15 08:38:14;;;;;;;4.53;2.97;;;;;;;;;;5034371;28;20036;-75
2022/08/15 08:43:51;;;;;;;4.78;2.80;;;;;;;;;;5036233;28;20095;-75
2022/08/15 08:46:23;;;;;;;5.47;3.00;;;;;;;;;;5028809;28;20447;-73
2022/08/15 08:49:11;;;;;;;6.78;3.00;;;;;;;;;;5049971;28;20076;-74
2022/08/15 08:51:49;;;;;;;5.22;2.83;;;;;;;;;;5039269;28;20468;-74
2022/08/15 08:54:19;;;;;;;6.75;3.08;;;;;;;;;;5033116;28;20451;-76
2022/08/15 08:56:50;;;;;;;5.97;3.53;;;;;;;;;;5046281;28;20029;-75
2022/08/15 08:59:18;;;;;;;6.78;3.42;;;;;;;;;;5031716;28;20188;-75
2022/08/15 09:01:45;;;;;;;6.22;3.40;;;;;;;;;;5038706;28;20017;-74
2022/08/15 09:04:13;;;;;;;3.83;2.65;;;;;;;;;;5042664;28;20029;-74
2022/08/15 09:06:39;;;;;;;11.70;3.10;;;;;;;;;;5038416;28;20182;-75
2022/08/15 09:09:22;;;;;;;7.20;2.97;;;;;;;;;;5039343;28;20021;-75
2022/08/15 09:11:51;;;;;;;5.72;2.83;;;;;;;;;;5024500;28;20032;-74
2022/08/15 09:14:22;;;;;;;6.68;3.17;;;;;;;;;;5037265;28;20392;-75
2022/08/15 09:16:49;;;;;;;5.35;2.85;;;;;;;;;;5038179;28;20112;-76
2022/08/15 09:19:17;;;;;;;9.05;4.40;;;;;;;;;;5036243;28;20021;-75
2022/08/15 09:21:43;;;;;;;9.75;3.75;;;;;;;;;;5037096;28;20033;-75
2022/08/15 09:24:08;;;;;;;7.05;2.97;;;;;;;;;;5038783;28;20075;-76
2022/08/15 09:26:51;;;;;;;8.45;3.70;;;;;;;;;;5033409;28;20469;-75
2022/08/15 09:29:22;;;;;;;5.43;3.72;;;;;;;;;;5033626;28;20040;-75
2022/08/15 09:32:02;;;;;;;6.53;4.20;;;;;;;;;;5035766;28;20014;-75
2022/08/15 09:34:35;;;;;;;9.43;3.72;;;;;;;;;;5038969;28;20032;-75
2022/08/15 09:37:13;;;;;;;8.23;3.95;;;;;;;;;;5035424;28;20016;-77
2022/08/15 09:39:47;;;;;;;9.35;4.20;;;;;;;;;;5041354;28;20033;-75
2022/08/15 09:42:13;;;;;;;6.78;4.45;;;;;;;;;;5038916;28;20018;-75
2022/08/15 09:44:38;;;;;;;5.57;4.28;;;;;;;;;;5031142;28;20354;-75
2022/08/15 09:47:16;;;;;;;7.22;4.53;;;;;;;;;;5031691;28;20096;-75
2022/08/15 09:50:00;;;;;;;6.07;4.50;;;;;;;;;;5030385;28;20037;-76
2022/08/15 09:52:30;;;;;;;13.90;4.65;;;;;;;;;;5033232;28;20046;-76
2022/08/15 09:55:01;;;;;;;11.90;4.85;;;;;;;;;;5033302;28;20499;-75
2022/08/15 09:57:34;;;;;;;8.73;5.18;;;;;;;;;;5032710;28;20037;-75
2022/08/15 10:00:17;;;;;;;12.55;5.28;;;;;;;;;;5034471;28;20489;-76
2022/08/15 10:02:47;;;;;;;12.65;6.07;;;;;;;;;;5032926;28;20025;-75
2022/08/15 10:05:27;;;;;;;9.27;6.25;;;;;;;;;;5031020;28;20033;-75
2022/08/15 10:07:59;;;;;;;10.70;6.10;;;;;;;;;;5030093;28;20053;-75
2022/08/15 10:10:45;;;;;;;8.50;6.15;;;;;;;;;;5033011;28;20507;-75
2022/08/15 10:13:13;;;;;;;8.27;5.25;;;;;;;;;;5032247;28;20037;-76
2022/08/15 10:15:43;;;;;;;9.35;6.03;;;;;;;;;;5031522;28;20484;-75
2022/08/15 10:18:26;;;;;;;9.18;6.38;;;;;;;;;;5030020;28;20034;-73
2022/08/15 10:20:59;;;;;;;12.63;6.65;;;;;;;;;;5033367;28;20025;-74
2022/08/15 10:23:29;;;;;;;10.20;6.47;;;;;;;;;;5040001;28;20479;-74
2022/08/15 10:26:13;;;;;;;11.10;6.45;;;;;;;;;;5035856;28;20896;-74
2022/08/15 10:28:40;;;;;;;10.55;6.13;;;;;;;;;;5028452;28;20040;-75
2022/08/15 10:31:08;;;;;;;9.93;5.88;;;;;;;;;;5037249;28;20029;-74
2022/08/15 10:33:33;;;;;;;13.70;6.82;;;;;;;;;;5046304;28;20799;-74
2022/08/15 10:36:14;;;;;;;8.25;6.00;;;;;;;;;;5046792;28;20055;-74
2022/08/15 10:38:44;;;;;;;8.15;6.18;;;;;;;;;;5040205;28;20053;-77
2022/08/15 10:41:31;;;;;;;11.05;6.50;;;;;;;;;;5033905;28;20047;-74
2022/08/15 10:44:02;;;;;;;8.63;5.80;;;;;;;;;;5042287;28;20037;-74
2022/08/15 10:46:35;;;;;;;9.18;5.95;;;;;;;;;;5048710;28;20037;-75
2022/08/15 10:49:21;;;;;;;12.35;6.25;;;;;;;;;;5040263;28;20037;-75
2022/08/15 10:51:53;;;;;;;7.53;5.60;;;;;;;;;;5043626;28;20064;-75
2022/08/15 10:54:18;;;;;;;11.18;5.63;;;;;;;;;;5046802;28;20365;-75
2022/08/15 10:56:43;;;;;;;8.55;5.60;;;;;;;;;;5040464;28;20033;-74
2022/08/15 10:59:10;;;;;;;8.10;5.80;;;;;;;;;;5043551;28;20029;-74
2022/08/15 11:01:37;;;;;;;9.48;6.32;;;;;;;;;;5047010;28;20033;-74
2022/08/15 11:04:05;;;;;;;9.88;6.43;;;;;;;;;;5029285;28;20061;-75
2022/08/15 11:06:34;;;;;;;9.05;6.40;;;;;;;;;;5028155;28;20476;-74
2022/08/15 11:09:05;;;;;;;9.15;6.10;;;;;;;;;;5044109;28;20033;-74
2022/08/15 11:11:32;;;;;;;9.68;6.18;;;;;;;;;;5035898;28;20048;-75
2022/08/15 11:13:59;;;;;;;14.70;7.05;;;;;;;;;;5034262;28;20041;-76
2022/08/15 11:16:28;;;;;;;9.95;6.60;;;;;;;;;;5042012;28;20452;-75
2022/08/15 11:18:55;;;;;;;10.35;6.30;;;;;;;;;;5040442;28;20033;-75
2022/08/15 11:21:42;;;;;;;7.72;6.43;;;;;;;;;;5035865;28;20943;-75
2022/08/15 11:24:09;;;;;;;11.60;7.10;;;;;;;;;;5022694;28;20052;-76
2022/08/15 11:26:40;;;;;;;7.18;5.90;;;;;;;;;;5037018;28;20124;-76
2022/08/15 11:29:15;;;;;;;11.40;7.28;;;;;;;;;;5040511;28;20031;-75
2022/08/15 11:31:48;;;;;;;8.70;6.13;;;;;;;;;;5038825;28;20518;-74
2022/08/15 11:34:15;;;;;;;;;;;;;;;;;;5043665;28;20465;-74
2022/08/15 11:36:40;;;;;;;7.55;6.32;;;;;;;;;;5047315;28;20406;-74
2022/08/15 11:39:12;;;;;;;11.55;6.88;;;;;;;;;;5035979;28;20060;-74
2022/08/15 11:41:40;;;;;;;9.55;7.05;;;;;;;;;;5035949;28;20018;-74
2022/08/15 11:44:06;;;;;;;12.63;6.80;;;;;;;;;;5043900;28;20423;-74
2022/08/15 11:46:32;;;;;;;11.70;7.57;;;;;;;;;;5029508;28;20148;-74
2022/08/15 11:49:08;;;;;;;9.20;7.20;;;;;;;;;;5031063;28;20104;-74
2022/08/15 11:51:35;;;;;;;11.20;7.43;;;;;;;;;;5033926;28;20043;-74
2022/08/15 11:54:13;;;;;;;11.63;7.38;;;;;;;;;;5036699;28;20030;-74
2022/08/15 11:56:47;;;;;;;14.48;7.78;;;;;;;;;;5041234;28;20163;-74
2022/08/15 11:59:14;;;;;;;12.52;7.75;;;;;;;;;;5038373;28;20022;-74
2022/08/15 12:01:39;;;;;;;12.77;8.02;;;;;;;;;;5035666;28;20037;-73
2022/08/15 12:04:06;;;;;;;13.23;8.20;;;;;;;;;;5032946;28;20405;-74
2022/08/15 12:06:36;;;;;;;10.88;7.65;;;;;;;;;;5038926;28;20037;-74
2022/08/15 12:09:33;;;;;;;10.00;7.35;;;;;;;;;;5045504;28;20032;-74
2022/08/15 12:12:00;;;;;;;11.02;7.47;;;;;;;;;;5025739;28;20045;-74
2022/08/15 12:14:27;;;;;;;11.57;7.85;;;;;;;;;;5040949;28;20081;-74
2022/08/15 12:16:54;;;;;;;9.75;7.50;;;;;;;;;;5041037;28;20042;-74
2022/08/15 12:19:34;;;;;;;9.43;7.60;;;;;;;;;;5040764;28;20384;-74
2022/08/15 12:22:02;;;;;;;9.13;7.20;;;;;;;;;;5040307;28;20112;-75
2022/08/15 12:24:29;;;;;;;9.55;7.70;;;;;;;;;;5049652;28;20033;-74
2022/08/15 12:26:57;;;;;;;11.00;5.85;;;;;;;;;;5043991;28;20071;-75
2022/08/15 12:29:24;;;;;;;10.05;6.05;;;;;;;;;;5040582;28;20107;-74
2022/08/15 12:31:49;;;;;;;9.30;7.40;;;;;;;;;;5044415;28;20380;-75
2022/08/15 12:34:20;;;;;;;8.32;6.32;;;;;;;;;;5038653;28;20013;-74
2022/08/15 12:36:45;;;;;;;10.50;5.80;;;;;;;;;;5042659;28;20028;-75
2022/08/15 12:39:12;;;;;;;6.70;4.88;;;;;;;;;;5040473;28;20030;-76
2022/08/15 12:41:39;;;;;;;6.65;4.90;;;;;;;;;;5041719;28;20096;-77
2022/08/15 12:44:06;;;;;;;7.35;4.28;;;;;;;;;;5014336;28;20025;-78
2022/08/15 12:46:33;;;;;;;5.75;4.32;;;;;;;;;;5051382;28;20045;-76
2022/08/15 12:48:59;;;;;;;7.95;4.60;;;;;;;;;;5041587;28;20025;-75
2022/08/15 12:51:26;;;;;;;8.48;4.60;;;;;;;;;;5029461;28;20376;-74
2022/08/15 12:53:52;;;;;;;8.80;4.00;;;;;;;;;;5034473;28;20037;-74
2022/08/15 12:56:19;;;;;;;4.97;3.65;;;;;;;;;;5039618;28;20350;-75
2022/08/15 12:58:45;;;;;;;5.97;4.05;;;;;;;;;;5042271;28;20392;-74
2022/08/15 13:01:10;;;;;;;5.93;3.75;;;;;;;;;;5035394;28;20536;-75
2022/08/15 13:03:40;;;;;;;8.15;4.55;;;;;;;;;;5037541;28;20053;-74
2022/08/15 13:06:09;;;;;;;7.78;4.65;;;;;;;;;;5021591;28;20066;-76
2022/08/15 13:08:36;;;;;;;6.05;4.18;;;;;;;;;;5037284;28;20041;-76
2022/08/15 13:11:02;;;;;;;7.53;3.80;;;;;;;;;;5035339;28;20033;-76
2022/08/15 13:13:27;;;;;;;8.38;3.70;;;;;;;;;;5038194;28;20422;-77
2022/08/15 13:15:52;;;;;;;3.97;3.25;;;;;;;;;;5040709;28;20032;-78
2022/08/15 13:18:24;;;;;;;7.18;4.22;;;;;;;;;;5030454;28;20021;-76
2022/08/15 13:23:42;;;;;;;4.75;3.75;;;;;;;;;;5031193;28;20138;-77
2022/08/15 13:26:12;;;;;;;5.43;3.75;;;;;;;;;;5039266;28;20099;-75
2022/08/15 13:28:39;;;;;;;4.90;3.20;;;;;;;;;;5026124;28;20029;-78
2022/08/15 13:31:04;;;;;;;8.10;3.00;;;;;;;;;;5040297;28;20033;-77
2022/08/15 13:33:31;;;;;;;4.20;3.10;;;;;;;;;;5032510;28;20025;-76
2022/08/15 13:35:57;;;;;;;6.57;3.20;;;;;;;;;;5042592;28;20463;-76
2022/08/15 13:38:25;;;;;;;5.13;3.30;;;;;;;;;;5044846;28;20025;-76
2022/08/15 13:40:51;;;;;;;4.68;3.30;;;;;;;;;;5046997;28;20045;-76
2022/08/15 13:43:17;;;;;;;6.90;2.83;;;;;;;;;;5037615;28;20485;-75
2022/08/15 13:45:43;;;;;;;5.28;3.08;;;;;;;;;;5035496;28;20045;-76
2022/08/15 13:48:09;;;;;;;4.38;2.60;;;;;;;;;;5042696;28;20017;-76
2022/08/15 13:50:35;;;;;;;4.20;3.00;;;;;;;;;;5040996;28;20037;-75
2022/08/15 13:53:00;;;;;;;4.22;2.80;;;;;;;;;;5039475;28;20040;-76
2022/08/15 13:55:26;;;;;;;6.82;3.13;;;;;;;;;;5046998;28;20434;-76
2022/08/15 13:57:51;;;;;;;7.68;2.65;;;;;;;;;;5042475;28;20156;-76
2022/08/15 14:00:16;;;;;;;6.00;2.75;;;;;;;;;;5049074;28;20032;-76
2022/08/15 14:02:43;;;;;;;6.30;2.70;;;;;;;;;;5040606;28;20051;-76
2022/08/15 14:05:10;;;;;;;4.45;2.45;;;;;;;;;;5043585;28;20383;-76
2022/08/15 14:07:36;;;;;;;5.85;2.70;;;;;;;;;;5039805;28;20037;-76
2022/08/15 14:10:01;;;;;;;3.90;2.38;;;;;;;;;;5044178;28;20032;-75
2022/08/15 14:12:26;;;;;;;4.15;2.50;;;;;;;;;;5045304;28;20090;-77
2022/08/15 14:14:52;;;;;;;6.88;2.88;;;;;;;;;;5042766;28;20037;-75
2022/08/15 14:17:17;;;;;;;4.55;2.40;;;;;;;;;;5043206;28;20123;-76
2022/08/15 14:19:43;;;;;;;4.93;2.38;;;;;;;;;;5032447;28;20036;-76
2022/08/15 14:22:09;;;;;;;3.38;2.42;;;;;;;;;;5031471;28;20091;-76
2022/08/15 14:24:34;;;;;;;4.85;2.80;;;;;;;;;;5038237;28;20017;-76
2022/08/15 14:27:01;;;;;;;4.78;2.63;;;;;;;;;;5032197;28;20091;-75
2022/08/15 14:29:28;;;;;;;4.35;2.70;;;;;;;;;;5033072;28;20543;-76
2022/08/15 14:31:54;;;;;;;3.97;2.70;;;;;;;;;;5031753;28;20421;-76
2022/08/15 14:34:20;;;;;;;4.82;2.47;;;;;;;;;;5031274;28;20056;-75
2022/08/15 14:36:46;;;;;;;4.03;2.53;;;;;;;;;;5042615;28;20071;-76
2022/08/15 14:39:13;;;;;;;5.20;2.55;;;;;;;;;;5038337;28;20096;-76
2022/08/15 14:41:38;;;;;;;4.57;2.38;;;;;;;;;;5035032;28;20037;-77
2022/08/15 14:44:05;;;;;;;5.25;2.55;;;;;;;;;;5029663;28;20834;-76
2022/08/15 14:46:31;;;;;;;5.18;2.60;;;;;;;;;;5032335;28;20129;-76
2022/08/15 14:48:56;;;;;;;5.22;3.30;;;;;;;;;;5039870;28;20045;-75
2022/08/15 14:51:26;;;;;;;4.22;2.42;;;;;;;;;;5040591;28;20031;-76
2022/08/15 14:53:52;;;;;;;5.68;3.00;;;;;;;;;;5045041;28;20423;-76
2022/08/15 14:56:17;;;;;;;4.53;2.70;;;;;;;;;;5045762;28;20060;-77
2022/08/15 14:58:43;;;;;;;6.93;2.75;;;;;;;;;;5036109;28;20402;-76
2022/08/15 15:01:08;;;;;;;4.20;2.17;;;;;;;;;;5036704;28;20025;-76